KLNK/LNK METAR and TAF weather

Enter ICAO airport designator
Station Type Date Time Source
KLNK METAR 2020/04/06 09:54 UTC NOAA

KLNK 060954Z AUTO 17011KT 8SM OVC034 12/08 A2986 RMK AO2 SLP109 T01220083 $


Station Type Date Time Source
KLNK Decoded METAR 2020/04/06 09:54 UTC NOAA

LINCOLN MUNICIPAL AIRPORT, NE, United States (KLNK) 40-50N 96-46W 364M
Apr 06, 2020 - 05:54 AM EDT / 2020.04.06 0954 UTC
Wind: from the S (170 degrees) at 13 MPH (11 KT):0
Visibility: 8 mile(s):0
Sky conditions: overcast
Temperature: 54.0 F (12.2 C)
Dew Point: 46.9 F (8.3 C)
Relative Humidity: 77%
Pressure (altimeter): 29.86 in. Hg (1011 hPa)
ob: KLNK 060954Z AUTO 17011KT 8SM OVC034 12/08 A2986 RMK AO2 SLP109 T01220083
cycle: 10

Station Type Date Time Source
KLNK TAF 2020/04/06 08:30 UTC NOAA

TAF
AMD KLNK 060829Z 0608/0706 16011KT 6SM HZ OVC035
FM061200 16010KT 5SM BR OVC015
FM061400 17010KT 4SM -DZ OVC008
FM061800 19011KT P6SM OVC015
FM062100 19011KT P6SM OVC035

Example: see airport list